sensor_id;sensor_type;location;lat;lon;timestamp;temperature;humidity
5792;DHT22;2922;53.482;10.006;2023-04-15T00:00:15;8.60;99.90
5792;DHT22;2922;53.482;10.006;2023-04-15T00:02:42;8.60;99.90
5792;DHT22;2922;53.482;10.006;2023-04-15T00:05:08;8.60;99.90
5792;DHT22;2922;53.482;10.006;2023-04-15T00:07:34;8.60;99.90
5792;DHT22;2922;53.482;10.006;2023-04-15T00:10:01;8.60;99.90
5792;DHT22;2922;53.482;10.006;2023-04-15T00:12:27;8.50;99.90
5792;DHT22;2922;53.482;10.006;2023-04-15T00:14:53;8.50;99.90
5792;DHT22;2922;53.482;10.006;2023-04-15T00:17:19;8.50;99.90
5792;DHT22;2922;53.482;10.006;2023-04-15T00:19:44;8.40;99.90
5792;DHT22;2922;53.482;10.006;2023-04-15T00:22:10;8.50;99.90
5792;DHT22;2922;53.482;10.006;2023-04-15T00:24:37;8.40;99.90
5792;DHT22;2922;53.482;10.006;2023-04-15T00:27:02;8.40;99.90
5792;DHT22;2922;53.482;10.006;2023-04-15T00:29:28;8.40;99.90
5792;DHT22;2922;53.482;10.006;2023-04-15T00:31:55;8.40;99.90
5792;DHT22;2922;53.482;10.006;2023-04-15T00:34:21;8.40;99.90
5792;DHT22;2922;53.482;10.006;2023-04-15T00:36:47;8.40;99.90
5792;DHT22;2922;53.482;10.006;2023-04-15T00:39:13;8.40;99.90
5792;DHT22;2922;53.482;10.006;2023-04-15T00:41:39;8.40;99.90
5792;DHT22;2922;53.482;10.006;2023-04-15T00:44:07;8.40;99.90
5792;DHT22;2922;53.482;10.006;2023-04-15T00:46:35;8.30;99.90
5792;DHT22;2922;53.482;10.006;2023-04-15T00:49:03;8.30;99.90
5792;DHT22;2922;53.482;10.006;2023-04-15T00:51:29;8.30;99.90
5792;DHT22;2922;53.482;10.006;2023-04-15T00:53:58;8.20;99.90
5792;DHT22;2922;53.482;10.006;2023-04-15T00:56:24;8.30;99.90
5792;DHT22;2922;53.482;10.006;2023-04-15T00:58:51;8.30;99.90
5792;DHT22;2922;53.482;10.006;2023-04-15T01:01:20;8.30;99.90
5792;DHT22;2922;53.482;10.006;2023-04-15T01:03:49;8.30;99.90
5792;DHT22;2922;53.482;10.006;2023-04-15T01:06:16;8.30;99.90
5792;DHT22;2922;53.482;10.006;2023-04-15T01:08:42;8.30;99.90
5792;DHT22;2922;53.482;10.006;2023-04-15T01:11:08;8.20;99.90
5792;DHT22;2922;53.482;10.006;2023-04-15T01:13:35;8.20;99.90
5792;DHT22;2922;53.482;10.006;2023-04-15T01:16:01;8.20;99.90
5792;DHT22;2922;53.482;10.006;2023-04-15T01:18:27;8.20;99.90
5792;DHT22;2922;53.482;10.006;2023-04-15T01:20:53;8.20;99.90
5792;DHT22;2922;53.482;10.006;2023-04-15T01:23:20;8.20;99.90
5792;DHT22;2922;53.482;10.006;2023-04-15T01:25:48;8.20;99.90
5792;DHT22;2922;53.482;10.006;2023-04-15T01:28:14;8.20;99.90
5792;DHT22;2922;53.482;10.006;2023-04-15T01:30:39;8.20;99.90
5792;DHT22;2922;53.482;10.006;2023-04-15T01:33:05;8.20;99.90
5792;DHT22;2922;53.482;10.006;2023-04-15T01:35:31;8.10;99.90
5792;DHT22;2922;53.482;10.006;2023-04-15T01:38:03;8.10;99.90
5792;DHT22;2922;53.482;10.006;2023-04-15T01:40:29;8.10;99.90
5792;DHT22;2922;53.482;10.006;2023-04-15T01:42:55;8.10;99.90
5792;DHT22;2922;53.482;10.006;2023-04-15T01:45:20;8.10;99.90
5792;DHT22;2922;53.482;10.006;2023-04-15T01:47:46;8.10;99.90
5792;DHT22;2922;53.482;10.006;2023-04-15T01:50:12;8.10;99.90
5792;DHT22;2922;53.482;10.006;2023-04-15T01:52:38;8.10;99.90
5792;DHT22;2922;53.482;10.006;2023-04-15T01:55:04;8.10;99.90
5792;DHT22;2922;53.482;10.006;2023-04-15T01:57:30;8.10;99.90
5792;DHT22;2922;53.482;10.006;2023-04-15T01:59:56;8.10;99.90
5792;DHT22;2922;53.482;10.006;2023-04-15T02:02:21;8.10;99.90
5792;DHT22;2922;53.482;10.006;2023-04-15T02:04:47;8.10;99.90
5792;DHT22;2922;53.482;10.006;2023-04-15T02:07:13;8.20;99.90
5792;DHT22;2922;53.482;10.006;2023-04-15T02:09:38;8.20;99.90
5792;DHT22;2922;53.482;10.006;2023-04-15T02:12:04;8.20;99.90
5792;DHT22;2922;53.482;10.006;2023-04-15T02:14:30;8.10;99.90
5792;DHT22;2922;53.482;10.006;2023-04-15T02:16:56;8.10;99.90
5792;DHT22;2922;53.482;10.006;2023-04-15T02:19:21;8.10;99.90
5792;DHT22;2922;53.482;10.006;2023-04-15T02:21:47;8.10;99.90
5792;DHT22;2922;53.482;10.006;2023-04-15T02:24:12;8.10;99.90
5792;DHT22;2922;53.482;10.006;2023-04-15T02:26:38;8.10;99.90
5792;DHT22;2922;53.482;10.006;2023-04-15T02:29:03;8.10;99.90
5792;DHT22;2922;53.482;10.006;2023-04-15T02:31:29;8.00;99.90
5792;DHT22;2922;53.482;10.006;2023-04-15T02:33:55;8.10;99.90
5792;DHT22;2922;53.482;10.006;2023-04-15T02:36:20;8.00;99.90
5792;DHT22;2922;53.482;10.006;2023-04-15T02:38:46;8.10;99.90
5792;DHT22;2922;53.482;10.006;2023-04-15T02:41:11;8.10;99.90
5792;DHT22;2922;53.482;10.006;2023-04-15T02:43:37;8.10;99.90
5792;DHT22;2922;53.482;10.006;2023-04-15T02:46:04;8.10;99.90
5792;DHT22;2922;53.482;10.006;2023-04-15T02:48:30;8.10;99.90
5792;DHT22;2922;53.482;10.006;2023-04-15T02:51:16;8.10;99.90
5792;DHT22;2922;53.482;10.006;2023-04-15T02:53:42;8.10;99.90
5792;DHT22;2922;53.482;10.006;2023-04-15T02:56:08;8.10;99.90
5792;DHT22;2922;53.482;10.006;2023-04-15T02:58:34;8.10;99.90
5792;DHT22;2922;53.482;10.006;2023-04-15T03:01:00;8.10;99.90
5792;DHT22;2922;53.482;10.006;2023-04-15T03:03:26;8.10;99.90
5792;DHT22;2922;53.482;10.006;2023-04-15T03:05:52;8.10;99.90
5792;DHT22;2922;53.482;10.006;2023-04-15T03:08:18;8.10;99.90
5792;DHT22;2922;53.482;10.006;2023-04-15T03:10:45;8.10;99.90
5792;DHT22;2922;53.482;10.006;2023-04-15T03:13:12;8.10;99.90
5792;DHT22;2922;53.482;10.006;2023-04-15T03:15:37;8.10;99.90
5792;DHT22;2922;53.482;10.006;2023-04-15T03:18:03;8.10;99.90
5792;DHT22;2922;53.482;10.006;2023-04-15T03:20:28;8.20;99.90
5792;DHT22;2922;53.482;10.006;2023-04-15T03:22:54;8.10;99.90
5792;DHT22;2922;53.482;10.006;2023-04-15T03:25:19;8.20;99.90
5792;DHT22;2922;53.482;10.006;2023-04-15T03:27:45;8.20;99.90
5792;DHT22;2922;53.482;10.006;2023-04-15T03:30:11;8.20;99.90
5792;DHT22;2922;53.482;10.006;2023-04-15T03:32:37;8.20;99.90
5792;DHT22;2922;53.482;10.006;2023-04-15T03:35:03;8.20;99.90
5792;DHT22;2922;53.482;10.006;2023-04-15T03:37:29;8.10;99.90
5792;DHT22;2922;53.482;10.006;2023-04-15T03:39:54;8.20;99.90
5792;DHT22;2922;53.482;10.006;2023-04-15T03:42:20;8.20;99.90
5792;DHT22;2922;53.482;10.006;2023-04-15T03:44:46;8.20;99.90
5792;DHT22;2922;53.482;10.006;2023-04-15T03:47:11;8.20;99.90
5792;DHT22;2922;53.482;10.006;2023-04-15T03:49:37;8.20;99.90
5792;DHT22;2922;53.482;10.006;2023-04-15T03:52:02;8.20;99.90
5792;DHT22;2922;53.482;10.006;2023-04-15T03:54:28;8.20;99.90
5792;DHT22;2922;53.482;10.006;2023-04-15T03:56:54;8.20;99.90
5792;DHT22;2922;53.482;10.006;2023-04-15T03:59:20;8.20;99.90
5792;DHT22;2922;53.482;10.006;2023-04-15T04:01:45;8.20;99.90
5792;DHT22;2922;53.482;10.006;2023-04-15T04:04:11;8.20;99.90
5792;DHT22;2922;53.482;10.006;2023-04-15T04:06:36;8.20;99.90
5792;DHT22;2922;53.482;10.006;2023-04-15T04:09:02;8.30;99.90
5792;DHT22;2922;53.482;10.006;2023-04-15T04:11:28;8.20;99.90
5792;DHT22;2922;53.482;10.006;2023-04-15T04:13:53;8.30;99.90
5792;DHT22;2922;53.482;10.006;2023-04-15T04:16:19;8.30;99.90
5792;DHT22;2922;53.482;10.006;2023-04-15T04:18:44;8.20;99.90
5792;DHT22;2922;53.482;10.006;2023-04-15T04:21:10;8.30;99.90
5792;DHT22;2922;53.482;10.006;2023-04-15T04:23:36;8.30;99.90
5792;DHT22;2922;53.482;10.006;2023-04-15T04:26:01;8.30;99.90
5792;DHT22;2922;53.482;10.006;2023-04-15T04:28:27;8.30;99.90
5792;DHT22;2922;53.482;10.006;2023-04-15T04:30:52;8.30;99.90
5792;DHT22;2922;53.482;10.006;2023-04-15T04:33:18;8.30;99.90
5792;DHT22;2922;53.482;10.006;2023-04-15T04:35:44;8.30;99.90
5792;DHT22;2922;53.482;10.006;2023-04-15T04:38:09;8.20;99.90
5792;DHT22;2922;53.482;10.006;2023-04-15T04:40:35;8.20;99.90
5792;DHT22;2922;53.482;10.006;2023-04-15T04:43:01;8.30;99.90
5792;DHT22;2922;53.482;10.006;2023-04-15T04:45:27;8.20;99.90
5792;DHT22;2922;53.482;10.006;2023-04-15T04:47:52;8.30;99.90
5792;DHT22;2922;53.482;10.006;2023-04-15T04:50:18;8.30;99.90
5792;DHT22;2922;53.482;10.006;2023-04-15T04:52:43;8.30;99.90
5792;DHT22;2922;53.482;10.006;2023-04-15T04:55:09;8.30;99.90
5792;DHT22;2922;53.482;10.006;2023-04-15T04:57:35;8.30;99.90
5792;DHT22;2922;53.482;10.006;2023-04-15T05:00:01;8.30;99.90
5792;DHT22;2922;53.482;10.006;2023-04-15T05:02:29;8.30;99.90
5792;DHT22;2922;53.482;10.006;2023-04-15T05:04:55;8.30;99.90
5792;DHT22;2922;53.482;10.006;2023-04-15T05:07:21;8.30;99.90
5792;DHT22;2922;53.482;10.006;2023-04-15T05:09:46;8.30;99.90
5792;DHT22;2922;53.482;10.006;2023-04-15T05:12:12;8.30;99.90
5792;DHT22;2922;53.482;10.006;2023-04-15T05:14:40;8.30;99.90
5792;DHT22;2922;53.482;10.006;2023-04-15T05:17:06;8.30;99.90
5792;DHT22;2922;53.482;10.006;2023-04-15T05:19:32;8.30;99.90
5792;DHT22;2922;53.482;10.006;2023-04-15T05:21:57;8.30;99.90
5792;DHT22;2922;53.482;10.006;2023-04-15T05:24:23;8.30;99.90
5792;DHT22;2922;53.482;10.006;2023-04-15T05:26:48;8.30;99.90
5792;DHT22;2922;53.482;10.006;2023-04-15T05:29:14;8.30;99.90
5792;DHT22;2922;53.482;10.006;2023-04-15T05:31:39;8.30;99.90
5792;DHT22;2922;53.482;10.006;2023-04-15T05:34:05;8.40;99.90
5792;DHT22;2922;53.482;10.006;2023-04-15T05:36:31;8.40;99.90
5792;DHT22;2922;53.482;10.006;2023-04-15T05:38:57;8.40;99.90
5792;DHT22;2922;53.482;10.006;2023-04-15T05:41:23;8.40;99.90
5792;DHT22;2922;53.482;10.006;2023-04-15T05:43:48;8.40;99.90
5792;DHT22;2922;53.482;10.006;2023-04-15T05:46:14;8.40;99.90
5792;DHT22;2922;53.482;10.006;2023-04-15T05:48:40;8.40;99.90
5792;DHT22;2922;53.482;10.006;2023-04-15T05:51:05;8.40;99.90
5792;DHT22;2922;53.482;10.006;2023-04-15T05:53:31;8.50;99.90
5792;DHT22;2922;53.482;10.006;2023-04-15T05:55:57;8.50;99.90
5792;DHT22;2922;53.482;10.006;2023-04-15T05:58:22;8.40;99.90
5792;DHT22;2922;53.482;10.006;2023-04-15T06:00:48;8.50;99.90
5792;DHT22;2922;53.482;10.006;2023-04-15T06:03:14;8.50;99.90
5792;DHT22;2922;53.482;10.006;2023-04-15T06:05:39;8.50;99.90
5792;DHT22;2922;53.482;10.006;2023-04-15T06:08:05;8.50;99.90
5792;DHT22;2922;53.482;10.006;2023-04-15T06:10:31;8.50;99.90
5792;DHT22;2922;53.482;10.006;2023-04-15T06:13:01;8.50;99.90
5792;DHT22;2922;53.482;10.006;2023-04-15T06:15:28;8.50;99.90
5792;DHT22;2922;53.482;10.006;2023-04-15T06:17:53;8.50;99.90
5792;DHT22;2922;53.482;10.006;2023-04-15T06:20:19;8.50;99.90
5792;DHT22;2922;53.482;10.006;2023-04-15T06:22:44;8.50;99.90
5792;DHT22;2922;53.482;10.006;2023-04-15T06:25:10;8.60;99.90
5792;DHT22;2922;53.482;10.006;2023-04-15T06:27:36;8.60;99.90
5792;DHT22;2922;53.482;10.006;2023-04-15T06:30:02;8.50;99.90
5792;DHT22;2922;53.482;10.006;2023-04-15T06:32:27;8.50;99.90
5792;DHT22;2922;53.482;10.006;2023-04-15T06:34:53;8.50;99.90
5792;DHT22;2922;53.482;10.006;2023-04-15T06:37:19;8.50;99.90
5792;DHT22;2922;53.482;10.006;2023-04-15T06:39:45;8.50;99.90
5792;DHT22;2922;53.482;10.006;2023-04-15T06:42:10;8.60;99.90
5792;DHT22;2922;53.482;10.006;2023-04-15T06:44:36;8.60;99.90
5792;DHT22;2922;53.482;10.006;2023-04-15T06:47:02;8.60;99.90
5792;DHT22;2922;53.482;10.006;2023-04-15T06:49:28;8.60;99.90
5792;DHT22;2922;53.482;10.006;2023-04-15T06:51:53;8.60;99.90
5792;DHT22;2922;53.482;10.006;2023-04-15T06:54:19;8.60;99.90
5792;DHT22;2922;53.482;10.006;2023-04-15T06:56:44;8.60;99.90
5792;DHT22;2922;53.482;10.006;2023-04-15T06:59:10;8.70;99.90
5792;DHT22;2922;53.482;10.006;2023-04-15T07:01:36;8.60;99.90
5792;DHT22;2922;53.482;10.006;2023-04-15T07:04:01;8.60;99.90
5792;DHT22;2922;53.482;10.006;2023-04-15T07:06:27;8.60;99.90
5792;DHT22;2922;53.482;10.006;2023-04-15T07:08:52;8.70;99.90
5792;DHT22;2922;53.482;10.006;2023-04-15T07:11:19;8.70;99.90
5792;DHT22;2922;53.482;10.006;2023-04-15T07:13:45;8.80;99.90
5792;DHT22;2922;53.482;10.006;2023-04-15T07:16:11;8.80;99.90
5792;DHT22;2922;53.482;10.006;2023-04-15T07:18:36;8.80;99.90
5792;DHT22;2922;53.482;10.006;2023-04-15T07:21:02;8.80;99.90
5792;DHT22;2922;53.482;10.006;2023-04-15T07:23:27;8.80;99.90
5792;DHT22;2922;53.482;10.006;2023-04-15T07:25:54;8.80;99.90
5792;DHT22;2922;53.482;10.006;2023-04-15T07:28:19;8.80;99.90
5792;DHT22;2922;53.482;10.006;2023-04-15T07:30:45;8.80;99.90
5792;DHT22;2922;53.482;10.006;2023-04-15T07:33:10;8.90;99.90
5792;DHT22;2922;53.482;10.006;2023-04-15T07:35:36;8.90;99.90
5792;DHT22;2922;53.482;10.006;2023-04-15T07:38:02;8.90;99.90
5792;DHT22;2922;53.482;10.006;2023-04-15T07:40:27;8.90;99.90
5792;DHT22;2922;53.482;10.006;2023-04-15T07:42:54;8.80;99.90
5792;DHT22;2922;53.482;10.006;2023-04-15T07:45:21;8.90;99.90
5792;DHT22;2922;53.482;10.006;2023-04-15T07:47:47;8.90;99.90
5792;DHT22;2922;53.482;10.006;2023-04-15T07:50:12;9.00;99.90
5792;DHT22;2922;53.482;10.006;2023-04-15T07:52:39;8.90;99.90
5792;DHT22;2922;53.482;10.006;2023-04-15T07:55:05;9.00;99.90
5792;DHT22;2922;53.482;10.006;2023-04-15T07:57:33;9.00;99.90
5792;DHT22;2922;53.482;10.006;2023-04-15T07:59:59;9.00;99.90
5792;DHT22;2922;53.482;10.006;2023-04-15T08:02:25;9.00;99.90
5792;DHT22;2922;53.482;10.006;2023-04-15T08:04:51;9.00;99.90
5792;DHT22;2922;53.482;10.006;2023-04-15T08:07:17;9.00;99.90
5792;DHT22;2922;53.482;10.006;2023-04-15T08:09:43;9.00;99.90
5792;DHT22;2922;53.482;10.006;2023-04-15T08:12:09;9.00;99.90
5792;DHT22;2922;53.482;10.006;2023-04-15T08:14:38;9.00;99.90
5792;DHT22;2922;53.482;10.006;2023-04-15T08:17:03;9.10;99.90
5792;DHT22;2922;53.482;10.006;2023-04-15T08:19:30;9.10;99.90
5792;DHT22;2922;53.482;10.006;2023-04-15T08:21:55;9.10;99.90
5792;DHT22;2922;53.482;10.006;2023-04-15T08:24:22;9.10;99.90
5792;DHT22;2922;53.482;10.006;2023-04-15T08:26:48;9.20;99.90
5792;DHT22;2922;53.482;10.006;2023-04-15T08:29:13;9.30;99.90
5792;DHT22;2922;53.482;10.006;2023-04-15T08:31:39;9.30;99.90
5792;DHT22;2922;53.482;10.006;2023-04-15T08:34:05;9.30;99.90
5792;DHT22;2922;53.482;10.006;2023-04-15T08:36:30;9.40;99.90
5792;DHT22;2922;53.482;10.006;2023-04-15T08:38:57;9.40;99.90
5792;DHT22;2922;53.482;10.006;2023-04-15T08:41:24;9.40;99.90
5792;DHT22;2922;53.482;10.006;2023-04-15T08:43:56;9.40;99.90
5792;DHT22;2922;53.482;10.006;2023-04-15T08:46:22;9.40;99.90
5792;DHT22;2922;53.482;10.006;2023-04-15T08:48:49;9.50;99.90
5792;DHT22;2922;53.482;10.006;2023-04-15T08:51:16;9.50;99.90
5792;DHT22;2922;53.482;10.006;2023-04-15T08:53:43;9.50;99.90
5792;DHT22;2922;53.482;10.006;2023-04-15T08:56:10;9.60;99.90
5792;DHT22;2922;53.482;10.006;2023-04-15T08:58:36;9.60;99.90
5792;DHT22;2922;53.482;10.006;2023-04-15T09:01:02;9.60;99.90
5792;DHT22;2922;53.482;10.006;2023-04-15T09:03:29;9.60;99.90
5792;DHT22;2922;53.482;10.006;2023-04-15T09:05:55;9.70;99.90
5792;DHT22;2922;53.482;10.006;2023-04-15T09:08:21;9.70;99.90
5792;DHT22;2922;53.482;10.006;2023-04-15T09:10:47;9.70;99.90
5792;DHT22;2922;53.482;10.006;2023-04-15T09:13:13;9.80;99.90
5792;DHT22;2922;53.482;10.006;2023-04-15T09:15:38;9.80;99.90
5792;DHT22;2922;53.482;10.006;2023-04-15T09:18:04;9.80;99.90
5792;DHT22;2922;53.482;10.006;2023-04-15T09:20:40;9.90;99.90
5792;DHT22;2922;53.482;10.006;2023-04-15T09:23:13;9.90;99.90
5792;DHT22;2922;53.482;10.006;2023-04-15T09:25:40;9.90;99.90
5792;DHT22;2922;53.482;10.006;2023-04-15T09:28:07;10.00;99.90
5792;DHT22;2922;53.482;10.006;2023-04-15T09:30:33;10.00;99.90
5792;DHT22;2922;53.482;10.006;2023-04-15T09:33:00;10.00;99.90
5792;DHT22;2922;53.482;10.006;2023-04-15T09:35:27;10.10;99.90
5792;DHT22;2922;53.482;10.006;2023-04-15T09:38:03;10.10;99.90
5792;DHT22;2922;53.482;10.006;2023-04-15T09:40:36;10.10;99.90
5792;DHT22;2922;53.482;10.006;2023-04-15T09:43:03;10.30;99.90
5792;DHT22;2922;53.482;10.006;2023-04-15T09:45:30;10.40;99.90
5792;DHT22;2922;53.482;10.006;2023-04-15T09:48:23;10.50;99.90
5792;DHT22;2922;53.482;10.006;2023-04-15T09:50:51;10.60;99.90
5792;DHT22;2922;53.482;10.006;2023-04-15T09:53:22;10.70;99.90
5792;DHT22;2922;53.482;10.006;2023-04-15T09:55:53;10.80;99.90
5792;DHT22;2922;53.482;10.006;2023-04-15T09:58:24;10.90;99.90
5792;DHT22;2922;53.482;10.006;2023-04-15T10:00:51;10.90;99.90
5792;DHT22;2922;53.482;10.006;2023-04-15T10:03:25;11.00;99.90
5792;DHT22;2922;53.482;10.006;2023-04-15T10:05:53;11.10;99.90
5792;DHT22;2922;53.482;10.006;2023-04-15T10:08:21;11.10;99.90
5792;DHT22;2922;53.482;10.006;2023-04-15T10:10:47;11.20;99.90
5792;DHT22;2922;53.482;10.006;2023-04-15T10:13:21;11.30;99.90
5792;DHT22;2922;53.482;10.006;2023-04-15T10:15:58;11.40;99.90
5792;DHT22;2922;53.482;10.006;2023-04-15T10:18:27;11.60;99.90
5792;DHT22;2922;53.482;10.006;2023-04-15T10:20:53;11.70;99.90
5792;DHT22;2922;53.482;10.006;2023-04-15T10:23:21;11.90;99.90
5792;DHT22;2922;53.482;10.006;2023-04-15T10:25:48;11.90;99.90
5792;DHT22;2922;53.482;10.006;2023-04-15T10:28:16;12.00;99.90
5792;DHT22;2922;53.482;10.006;2023-04-15T10:30:42;12.10;99.90
5792;DHT22;2922;53.482;10.006;2023-04-15T10:33:08;12.30;99.90
5792;DHT22;2922;53.482;10.006;2023-04-15T10:35:36;12.40;99.90
5792;DHT22;2922;53.482;10.006;2023-04-15T10:38:02;12.40;99.90
5792;DHT22;2922;53.482;10.006;2023-04-15T10:40:49;12.50;99.90
5792;DHT22;2922;53.482;10.006;2023-04-15T10:43:24;12.50;99.90
5792;DHT22;2922;53.482;10.006;2023-04-15T10:45:53;12.70;99.90
5792;DHT22;2922;53.482;10.006;2023-04-15T10:48:18;12.80;99.90
5792;DHT22;2922;53.482;10.006;2023-04-15T10:51:04;12.70;99.90
5792;DHT22;2922;53.482;10.006;2023-04-15T10:53:30;12.80;99.90
5792;DHT22;2922;53.482;10.006;2023-04-15T10:55:56;13.00;99.90
5792;DHT22;2922;53.482;10.006;2023-04-15T10:58:23;13.10;99.90
5792;DHT22;2922;53.482;10.006;2023-04-15T11:00:51;13.10;99.90
5792;DHT22;2922;53.482;10.006;2023-04-15T11:03:37;13.10;99.90
5792;DHT22;2922;53.482;10.006;2023-04-15T11:06:04;13.10;99.90
5792;DHT22;2922;53.482;10.006;2023-04-15T11:08:57;13.10;99.90
5792;DHT22;2922;53.482;10.006;2023-04-15T11:14:27;13.20;99.90
5792;DHT22;2922;53.482;10.006;2023-04-15T11:16:53;13.30;99.90
5792;DHT22;2922;53.482;10.006;2023-04-15T11:19:18;13.40;99.90
5792;DHT22;2922;53.482;10.006;2023-04-15T11:21:44;13.40;99.90
5792;DHT22;2922;53.482;10.006;2023-04-15T11:24:09;13.50;99.90
5792;DHT22;2922;53.482;10.006;2023-04-15T11:26:35;13.50;99.90
5792;DHT22;2922;53.482;10.006;2023-04-15T11:29:00;13.60;99.90
5792;DHT22;2922;53.482;10.006;2023-04-15T11:31:27;13.50;99.90
5792;DHT22;2922;53.482;10.006;2023-04-15T11:36:18;13.40;99.90
5792;DHT22;2922;53.482;10.006;2023-04-15T11:38:45;13.30;99.90
5792;DHT22;2922;53.482;10.006;2023-04-15T11:41:11;13.40;99.90
5792;DHT22;2922;53.482;10.006;2023-04-15T11:43:37;13.50;99.90
5792;DHT22;2922;53.482;10.006;2023-04-15T11:46:03;13.50;99.90
5792;DHT22;2922;53.482;10.006;2023-04-15T11:48:33;13.50;99.90
5792;DHT22;2922;53.482;10.006;2023-04-15T11:51:06;13.50;99.90
5792;DHT22;2922;53.482;10.006;2023-04-15T11:56:02;13.40;99.90
5792;DHT22;2922;53.482;10.006;2023-04-15T11:58:29;13.50;99.90
5792;DHT22;2922;53.482;10.006;2023-04-15T12:00:58;13.60;99.90
5792;DHT22;2922;53.482;10.006;2023-04-15T12:03:40;13.60;99.90
5792;DHT22;2922;53.482;10.006;2023-04-15T12:16:44;14.00;99.90
5792;DHT22;2922;53.482;10.006;2023-04-15T12:19:12;14.10;99.90
5792;DHT22;2922;53.482;10.006;2023-04-15T12:21:40;14.20;99.90
5792;DHT22;2922;53.482;10.006;2023-04-15T12:24:08;14.30;99.90
5792;DHT22;2922;53.482;10.006;2023-04-15T12:26:49;14.20;99.90
5792;DHT22;2922;53.482;10.006;2023-04-15T12:29:15;14.20;99.90
5792;DHT22;2922;53.482;10.006;2023-04-15T12:34:31;14.00;99.90
5792;DHT22;2922;53.482;10.006;2023-04-15T12:36:58;13.90;99.90
5792;DHT22;2922;53.482;10.006;2023-04-15T12:39:25;13.90;99.90
5792;DHT22;2922;53.482;10.006;2023-04-15T12:41:51;13.90;99.90
5792;DHT22;2922;53.482;10.006;2023-04-15T12:44:17;13.90;99.90
5792;DHT22;2922;53.482;10.006;2023-04-15T12:46:45;14.00;99.90
5792;DHT22;2922;53.482;10.006;2023-04-15T12:49:11;14.10;99.90
5792;DHT22;2922;53.482;10.006;2023-04-15T12:51:39;14.00;99.90
5792;DHT22;2922;53.482;10.006;2023-04-15T12:54:04;13.90;99.90
5792;DHT22;2922;53.482;10.006;2023-04-15T12:56:30;13.80;99.90
5792;DHT22;2922;53.482;10.006;2023-04-15T12:58:55;13.90;99.90
5792;DHT22;2922;53.482;10.006;2023-04-15T13:01:21;13.90;99.90
5792;DHT22;2922;53.482;10.006;2023-04-15T13:03:47;14.00;99.90
5792;DHT22;2922;53.482;10.006;2023-04-15T13:06:14;14.00;99.90
5792;DHT22;2922;53.482;10.006;2023-04-15T13:08:40;14.00;99.90
5792;DHT22;2922;53.482;10.006;2023-04-15T13:11:06;14.00;99.90
5792;DHT22;2922;53.482;10.006;2023-04-15T13:13:32;14.00;99.90
5792;DHT22;2922;53.482;10.006;2023-04-15T13:15:58;14.00;99.90
5792;DHT22;2922;53.482;10.006;2023-04-15T13:18:23;14.00;99.90
5792;DHT22;2922;53.482;10.006;2023-04-15T13:20:50;14.00;99.90
5792;DHT22;2922;53.482;10.006;2023-04-15T13:23:15;13.90;99.90
5792;DHT22;2922;53.482;10.006;2023-04-15T13:25:41;13.90;99.90
5792;DHT22;2922;53.482;10.006;2023-04-15T13:28:08;14.00;99.90
5792;DHT22;2922;53.482;10.006;2023-04-15T13:30:37;14.00;99.90
5792;DHT22;2922;53.482;10.006;2023-04-15T13:33:03;14.10;99.90
5792;DHT22;2922;53.482;10.006;2023-04-15T13:35:28;14.10;99.90
5792;DHT22;2922;53.482;10.006;2023-04-15T13:37:54;14.10;99.90
5792;DHT22;2922;53.482;10.006;2023-04-15T13:40:20;14.10;99.90
5792;DHT22;2922;53.482;10.006;2023-04-15T13:42:46;14.00;99.90
5792;DHT22;2922;53.482;10.006;2023-04-15T13:45:11;14.00;99.90
5792;DHT22;2922;53.482;10.006;2023-04-15T13:47:37;14.10;99.90
5792;DHT22;2922;53.482;10.006;2023-04-15T13:50:03;14.20;99.90
5792;DHT22;2922;53.482;10.006;2023-04-15T13:52:29;14.10;99.90
5792;DHT22;2922;53.482;10.006;2023-04-15T13:54:54;14.20;99.90
5792;DHT22;2922;53.482;10.006;2023-04-15T13:57:20;14.30;99.90
5792;DHT22;2922;53.482;10.006;2023-04-15T13:59:46;14.40;99.90
5792;DHT22;2922;53.482;10.006;2023-04-15T14:02:11;14.50;99.90
5792;DHT22;2922;53.482;10.006;2023-04-15T14:04:37;14.60;99.90
5792;DHT22;2922;53.482;10.006;2023-04-15T14:07:02;14.80;99.90
5792;DHT22;2922;53.482;10.006;2023-04-15T14:09:28;14.90;99.90
5792;DHT22;2922;53.482;10.006;2023-04-15T14:11:54;15.20;99.90
5792;DHT22;2922;53.482;10.006;2023-04-15T14:14:20;15.30;99.90
5792;DHT22;2922;53.482;10.006;2023-04-15T14:16:46;15.50;99.90
5792;DHT22;2922;53.482;10.006;2023-04-15T14:19:13;15.50;99.90
5792;DHT22;2922;53.482;10.006;2023-04-15T14:21:38;15.50;99.90
5792;DHT22;2922;53.482;10.006;2023-04-15T14:24:04;15.30;99.90
5792;DHT22;2922;53.482;10.006;2023-04-15T14:26:30;15.30;99.90
5792;DHT22;2922;53.482;10.006;2023-04-15T14:28:55;15.20;99.90
5792;DHT22;2922;53.482;10.006;2023-04-15T14:31:21;15.10;99.90
5792;DHT22;2922;53.482;10.006;2023-04-15T14:33:46;15.30;99.90
5792;DHT22;2922;53.482;10.006;2023-04-15T14:36:12;15.50;99.90
5792;DHT22;2922;53.482;10.006;2023-04-15T14:38:39;15.60;99.90
5792;DHT22;2922;53.482;10.006;2023-04-15T14:41:05;15.60;99.90
5792;DHT22;2922;53.482;10.006;2023-04-15T14:43:31;15.50;99.90
5792;DHT22;2922;53.482;10.006;2023-04-15T14:45:57;15.50;99.90
5792;DHT22;2922;53.482;10.006;2023-04-15T14:48:23;15.50;99.90
5792;DHT22;2922;53.482;10.006;2023-04-15T14:50:49;15.40;99.90
5792;DHT22;2922;53.482;10.006;2023-04-15T14:53:14;15.50;99.90
5792;DHT22;2922;53.482;10.006;2023-04-15T14:55:40;15.50;99.90
5792;DHT22;2922;53.482;10.006;2023-04-15T14:58:06;15.50;99.90
5792;DHT22;2922;53.482;10.006;2023-04-15T15:00:34;15.60;99.90
5792;DHT22;2922;53.482;10.006;2023-04-15T15:03:00;15.60;99.90
5792;DHT22;2922;53.482;10.006;2023-04-15T15:05:26;15.60;99.90
5792;DHT22;2922;53.482;10.006;2023-04-15T15:07:51;15.60;99.90
5792;DHT22;2922;53.482;10.006;2023-04-15T15:10:17;15.60;99.90
5792;DHT22;2922;53.482;10.006;2023-04-15T15:12:42;15.60;99.90
5792;DHT22;2922;53.482;10.006;2023-04-15T15:15:08;15.70;99.90
5792;DHT22;2922;53.482;10.006;2023-04-15T15:17:34;15.70;99.90
5792;DHT22;2922;53.482;10.006;2023-04-15T15:20:00;15.60;99.90
5792;DHT22;2922;53.482;10.006;2023-04-15T15:22:27;15.60;99.90
5792;DHT22;2922;53.482;10.006;2023-04-15T15:24:52;15.60;99.90
5792;DHT22;2922;53.482;10.006;2023-04-15T15:27:18;15.50;99.90
5792;DHT22;2922;53.482;10.006;2023-04-15T15:29:43;15.50;99.90
5792;DHT22;2922;53.482;10.006;2023-04-15T15:32:09;15.50;99.90
5792;DHT22;2922;53.482;10.006;2023-04-15T15:34:35;15.40;99.90
5792;DHT22;2922;53.482;10.006;2023-04-15T15:37:00;15.30;99.90
5792;DHT22;2922;53.482;10.006;2023-04-15T15:39:26;15.30;99.90
5792;DHT22;2922;53.482;10.006;2023-04-15T15:41:52;15.40;99.90
5792;DHT22;2922;53.482;10.006;2023-04-15T15:44:17;15.30;99.90
5792;DHT22;2922;53.482;10.006;2023-04-15T15:46:43;15.30;99.90
5792;DHT22;2922;53.482;10.006;2023-04-15T15:49:09;15.20;99.90
5792;DHT22;2922;53.482;10.006;2023-04-15T15:51:35;15.00;99.90
5792;DHT22;2922;53.482;10.006;2023-04-15T15:54:00;14.90;99.90
5792;DHT22;2922;53.482;10.006;2023-04-15T15:56:26;14.80;99.90
5792;DHT22;2922;53.482;10.006;2023-04-15T15:58:51;14.70;99.90
5792;DHT22;2922;53.482;10.006;2023-04-15T16:01:17;14.70;99.90
5792;DHT22;2922;53.482;10.006;2023-04-15T16:03:42;14.70;99.90
5792;DHT22;2922;53.482;10.006;2023-04-15T16:06:08;14.60;99.90
5792;DHT22;2922;53.482;10.006;2023-04-15T16:08:34;14.60;99.90
5792;DHT22;2922;53.482;10.006;2023-04-15T16:10:59;14.60;99.90